createdAt,value
2022-09-06T00:01:47.377Z,101530.97
2022-09-06T00:04:44.601Z,101536.72
2022-09-06T00:07:41.977Z,101517.63
2022-09-06T00:10:39.621Z,101518.97
2022-09-06T00:13:36.729Z,101524.38
2022-09-06T00:16:33.720Z,101521.91
2022-09-06T00:19:31.187Z,101521.13
2022-09-06T00:22:28.696Z,101521.91
2022-09-06T00:25:26.246Z,101528.44
2022-09-06T00:28:23.828Z,101527.22
2022-09-06T00:31:23.489Z,101519.50
2022-09-06T00:34:20.611Z,101506.09
2022-09-06T00:37:17.403Z,101515.91
2022-09-06T00:40:14.557Z,101520.38
2022-09-06T00:43:11.161Z,101517.88
2022-09-06T00:46:09.636Z,101526.06
2022-09-06T00:49:12.668Z,101515.78
2022-09-06T00:52:11.124Z,101501.09
2022-09-06T00:55:09.147Z,101499.47
2022-09-06T00:58:06.320Z,101497.81
2022-09-06T01:01:03.536Z,101502.38
2022-09-06T01:04:00.648Z,101499.06
2022-09-06T01:07:25.825Z,101495.28
2022-09-06T01:10:36.801Z,101494.84
2022-09-06T01:13:55.046Z,101494.81
2022-09-06T01:17:20.798Z,101499.00
2022-09-06T01:20:52.178Z,101493.22
2022-09-06T01:23:58.585Z,101493.19
2022-09-06T01:27:14.536Z,101492.69
2022-09-06T01:30:13.031Z,101487.47
2022-09-06T01:33:12.506Z,101489.97
2022-09-06T01:36:11.577Z,101491.59
2022-09-06T01:39:11.827Z,101483.50
2022-09-06T01:42:17.724Z,101476.53
2022-09-06T01:45:17.920Z,101485.19
2022-09-06T01:48:49.878Z,101485.19
2022-09-06T01:52:13.113Z,101481.06
2022-09-06T01:55:10.609Z,101481.41
2022-09-06T01:58:32.101Z,101483.09
2022-09-06T02:02:03.373Z,101484.34
2022-09-06T02:05:06.374Z,101480.25
2022-09-06T02:08:12.098Z,101480.19
2022-09-06T02:11:09.701Z,101481.81
2022-09-06T02:14:15.573Z,101475.25
2022-09-06T02:17:13.458Z,101474.47
2022-09-06T02:20:21.335Z,101467.06
2022-09-06T02:23:19.641Z,101473.66
2022-09-06T02:26:22.107Z,101464.66
2022-09-06T02:29:19.857Z,101476.97
2022-09-06T02:32:20.875Z,101443.38
2022-09-06T02:35:17.517Z,101452.00
2022-09-06T02:38:15.001Z,101453.28
2022-09-06T02:41:13.326Z,101442.19
2022-09-06T02:44:10.909Z,101446.28
2022-09-06T02:47:07.681Z,101443.44
2022-09-06T02:50:04.545Z,101442.25
2022-09-06T02:53:09.708Z,101436.94
2022-09-06T02:56:06.854Z,101441.06
2022-09-06T02:59:05.528Z,101437.38
2022-09-06T03:02:02.662Z,101438.63
2022-09-06T03:04:59.672Z,101438.56
2022-09-06T03:07:57.001Z,101443.88
2022-09-06T03:10:56.279Z,101435.75
2022-09-06T03:13:53.762Z,101430.00
2022-09-06T03:16:50.883Z,101433.25
2022-09-06T03:19:47.726Z,101428.75
2022-09-06T03:22:44.891Z,101422.16
2022-09-06T03:25:42.980Z,101428.34
2022-09-06T03:28:40.860Z,101425.47
2022-09-06T03:31:37.648Z,101420.97
2022-09-06T03:34:34.770Z,101423.44
2022-09-06T03:37:31.855Z,101420.97
2022-09-06T03:40:28.782Z,101420.97
2022-09-06T03:43:26.443Z,101413.59
2022-09-06T03:46:24.156Z,101418.09
2022-09-06T03:49:21.705Z,101418.09
2022-09-06T03:52:18.694Z,101435.31
2022-09-06T03:55:15.760Z,101436.56
2022-09-06T03:58:12.870Z,101437.78
2022-09-06T04:01:11.074Z,101452.53
2022-09-06T04:04:08.705Z,101448.03
2022-09-06T04:07:06.085Z,101448.84
2022-09-06T04:10:04.088Z,101439.81
2022-09-06T04:13:01.714Z,101440.66
2022-09-06T04:15:58.805Z,101434.13
2022-09-06T04:18:55.716Z,101431.25
2022-09-06T04:21:53.056Z,101427.53
2022-09-06T04:24:50.829Z,101427.97
2022-09-06T04:27:47.797Z,101428.38
2022-09-06T04:30:45.982Z,101429.19
2022-09-06T04:33:42.910Z,101431.66
2022-09-06T04:36:40.119Z,101421.38
2022-09-06T04:39:37.721Z,101438.59
2022-09-06T04:42:34.899Z,101432.47
2022-09-06T04:45:32.103Z,101433.69
2022-09-06T04:48:29.754Z,101436.97
2022-09-06T04:51:26.482Z,101436.97
2022-09-06T04:54:23.723Z,101432.81
2022-09-06T04:57:20.653Z,101439.38
2022-09-06T05:00:18.051Z,101442.28
2022-09-06T05:03:15.671Z,101437.38
2022-09-06T05:06:23.611Z,101431.22
2022-09-06T05:09:20.587Z,101438.63
2022-09-06T05:12:17.789Z,101424.63
2022-09-06T05:15:14.835Z,101429.94
2022-09-06T05:18:15.960Z,101432.88
2022-09-06T05:21:14.461Z,101440.25
2022-09-06T05:24:12.422Z,101444.75
2022-09-06T05:27:09.879Z,101445.16
2022-09-06T05:30:07.323Z,101446.41
2022-09-06T05:33:04.826Z,101445.59
2022-09-06T05:36:02.558Z,101437.81
2022-09-06T05:38:59.737Z,101455.81
2022-09-06T05:41:56.886Z,101461.16
2022-09-06T05:44:53.560Z,101467.31
2022-09-06T05:47:50.609Z,101457.06
2022-09-06T05:50:47.911Z,101459.94
2022-09-06T05:53:48.105Z,101460.34
2022-09-06T05:56:45.877Z,101474.28
2022-09-06T05:59:42.955Z,101478.78
2022-09-06T06:02:40.585Z,101477.97
2022-09-06T06:05:37.703Z,101499.19
2022-09-06T06:08:36.007Z,101498.72
2022-09-06T06:11:33.606Z,101508.19
2022-09-06T06:14:30.662Z,101515.56
2022-09-06T06:17:27.861Z,101525.81
2022-09-06T06:20:25.470Z,101527.88
2022-09-06T06:23:22.895Z,101545.16
2022-09-06T06:26:20.077Z,101552.94
2022-09-06T06:29:16.752Z,101553.78
2022-09-06T06:32:13.555Z,101550.13
2022-09-06T06:35:11.103Z,101557.16
2022-09-06T06:38:07.346Z,101541.16
2022-09-06T06:41:06.987Z,101543.22
2022-09-06T06:44:05.518Z,101545.28
2022-09-06T06:47:02.822Z,101542.72
2022-09-06T06:49:59.627Z,101525.47
2022-09-06T06:52:56.505Z,101518.53
2022-09-06T06:55:54.204Z,101509.56
2022-09-06T06:58:53.890Z,101526.41
2022-09-06T07:01:51.106Z,101526.41
2022-09-06T07:04:48.890Z,101518.56
2022-09-06T07:07:46.188Z,101509.50
2022-09-06T07:10:43.690Z,101495.94
2022-09-06T07:13:41.539Z,101501.34
2022-09-06T07:16:38.950Z,101488.25
2022-09-06T07:26:21.295Z,101466.06
2022-09-06T07:29:19.298Z,101465.22
2022-09-06T07:32:16.603Z,101469.72
2022-09-06T07:35:14.207Z,101454.19
2022-09-06T07:38:12.019Z,101452.13
2022-09-06T07:41:12.198Z,101453.75
2022-09-06T07:44:10.410Z,101455.00
2022-09-06T07:53:44.842Z,101462.41
2022-09-06T07:56:42.027Z,101467.34
2022-09-06T07:59:42.907Z,101472.66
2022-09-06T08:02:41.014Z,101476.69
2022-09-06T08:11:57.567Z,101479.22
2022-09-06T08:14:55.387Z,101470.19
2022-09-06T08:17:53.015Z,101482.88
2022-09-06T08:20:49.672Z,101491.94
2022-09-06T08:23:48.379Z,101487.81
2022-09-06T08:26:45.892Z,101479.97
2022-09-06T08:29:42.896Z,101477.03
2022-09-06T08:32:41.340Z,101490.88
2022-09-06T08:35:39.061Z,101478.88
2022-09-06T08:38:36.158Z,101491.47
2022-09-06T08:41:51.974Z,101488.84
2022-09-06T08:47:52.480Z,101490.38
2022-09-06T08:51:10.663Z,101483.41
2022-09-06T08:54:42.606Z,101494.75
2022-09-06T08:58:07.478Z,101498.56
2022-09-06T09:01:13.589Z,101494.94
2022-09-06T09:04:14.027Z,101483.06
2022-09-06T09:07:26.523Z,101469.69
2022-09-06T09:10:29.281Z,101477.38
2022-09-06T09:13:35.505Z,101475.50
2022-09-06T09:16:32.858Z,101472.44
2022-09-06T09:19:33.575Z,101475.47
2022-09-06T09:22:30.770Z,101475.69
2022-09-06T09:25:27.899Z,101471.00
2022-09-06T09:28:25.631Z,101479.66
2022-09-06T09:31:34.610Z,101470.81
2022-09-06T09:34:35.840Z,101473.66
2022-09-06T09:37:49.694Z,101461.09
2022-09-06T09:40:52.337Z,101458.69
2022-09-06T09:44:10.345Z,101459.97
2022-09-06T09:47:23.963Z,101458.13
2022-09-06T09:50:33.977Z,101471.06
2022-09-06T09:53:30.623Z,101456.44
2022-09-06T09:56:47.820Z,101453.22
2022-09-06T10:00:10.956Z,101443.69
2022-09-06T10:03:18.975Z,101433.16
2022-09-06T10:09:37.583Z,101430.41
2022-09-06T10:12:39.317Z,101436.75
2022-09-06T10:15:38.383Z,101438.38
2022-09-06T10:18:45.117Z,101419.44
2022-09-06T10:21:43.386Z,101423.78
2022-09-06T10:24:59.502Z,101446.81
2022-09-06T10:28:15.451Z,101451.88
2022-09-06T10:31:36.898Z,101450.19
2022-09-06T10:35:11.758Z,101439.34
2022-09-06T10:38:27.838Z,101428.75
2022-09-06T10:41:39.730Z,101423.19
2022-09-06T10:44:53.079Z,101406.91
2022-09-06T10:47:57.205Z,101405.31
2022-09-06T10:50:55.290Z,101405.63
2022-09-06T10:54:11.935Z,101401.56
2022-09-06T11:00:46.810Z,101386.19
2022-09-06T11:04:04.144Z,101385.19
2022-09-06T11:07:04.251Z,101390.59
2022-09-06T11:10:10.247Z,101396.06
2022-09-06T11:13:10.848Z,101401.88
2022-09-06T11:16:19.401Z,101397.69
2022-09-06T11:19:22.692Z,101389.63
2022-09-06T11:22:33.287Z,101398.66
2022-09-06T11:25:48.811Z,101378.13
2022-09-06T11:29:10.706Z,101380.16
2022-09-06T11:32:30.152Z,101402.78
2022-09-06T11:35:33.142Z,101391.31
2022-09-06T11:38:29.977Z,101387.09
2022-09-06T11:41:38.356Z,101388.53
2022-09-06T11:44:57.409Z,101386.38
2022-09-06T11:47:56.061Z,101379.44
2022-09-06T11:50:58.973Z,101376.59
2022-09-06T11:53:59.358Z,101383.31
2022-09-06T11:57:00.383Z,101375.50
2022-09-06T12:00:01.066Z,101383.59
2022-09-06T12:06:37.679Z,101364.53
2022-09-06T12:09:38.459Z,101377.78
2022-09-06T12:12:43.377Z,101368.16
2022-09-06T12:15:52.878Z,101364.06
2022-09-06T12:18:49.736Z,101360.06
2022-09-06T12:21:47.822Z,101362.09
2022-09-06T12:24:44.962Z,101362.31
2022-09-06T12:27:50.783Z,101345.88
2022-09-06T12:30:48.170Z,101362.84
2022-09-06T12:33:47.145Z,101350.81
2022-09-06T12:36:56.936Z,101342.69
2022-09-06T12:39:58.735Z,101343.69
2022-09-06T12:42:56.036Z,101339.66
2022-09-06T12:45:53.277Z,101326.44
2022-09-06T12:49:20.107Z,101328.78
2022-09-06T12:52:19.421Z,101331.91
2022-09-06T12:55:38.514Z,101342.94
2022-09-06T12:58:36.712Z,101325.16
2022-09-06T13:01:34.602Z,101327.22
2022-09-06T13:04:41.811Z,101328.97
2022-09-06T13:07:41.621Z,101318.88
2022-09-06T13:10:40.607Z,101314.13
2022-09-06T13:13:44.582Z,101322.84
2022-09-06T13:16:50.520Z,101314.69
2022-09-06T13:19:49.701Z,101307.63
2022-09-06T13:22:49.396Z,101317.03
2022-09-06T13:25:51.677Z,101317.69
2022-09-06T13:28:49.248Z,101320.28
2022-09-06T13:31:47.605Z,101312.41
2022-09-06T13:34:49.739Z,101307.44
2022-09-06T13:37:49.524Z,101307.94
2022-09-06T13:41:10.510Z,101312.66
2022-09-06T13:44:17.162Z,101313.69
2022-09-06T13:47:13.828Z,101309.50
2022-09-06T13:50:11.242Z,101303.47
2022-09-06T13:53:08.727Z,101308.66
2022-09-06T13:56:08.816Z,101307.19
2022-09-06T13:59:06.678Z,101305.84
2022-09-06T14:02:05.766Z,101304.19
2022-09-06T14:05:02.967Z,101302.28
2022-09-06T14:08:00.118Z,101302.59
2022-09-06T14:11:01.052Z,101300.59
2022-09-06T14:14:03.801Z,101305.06
2022-09-06T14:17:01.514Z,101310.72
2022-09-06T14:19:59.336Z,101307.16
2022-09-06T14:22:56.148Z,101306.84
2022-09-06T14:25:56.734Z,101301.50
2022-09-06T14:28:54.924Z,101304.25
2022-09-06T14:31:52.317Z,101290.97
2022-09-06T14:34:49.317Z,101292.78
2022-09-06T14:37:46.190Z,101282.09
2022-09-06T14:40:46.038Z,101295.44
2022-09-06T14:43:43.717Z,101289.19
2022-09-06T14:46:41.306Z,101277.22
2022-09-06T14:49:41.274Z,101291.22
2022-09-06T14:52:38.386Z,101283.31
2022-09-06T14:55:39.161Z,101291.22
2022-09-06T14:58:37.601Z,101287.00
2022-09-06T15:01:38.656Z,101277.84
2022-09-06T15:04:38.478Z,101273.38
2022-09-06T15:07:35.557Z,101265.47
2022-09-06T15:10:33.984Z,101257.75
2022-09-06T15:13:31.468Z,101265.06
2022-09-06T15:16:29.026Z,101255.00
2022-09-06T15:19:27.308Z,101245.28
2022-09-06T15:22:24.417Z,101257.13
2022-09-06T15:25:21.463Z,101250.84
2022-09-06T15:28:19.537Z,101235.22
2022-09-06T15:31:19.727Z,101228.72
2022-09-06T15:34:18.437Z,101238.81
2022-09-06T15:37:17.590Z,101238.41
2022-09-06T15:40:15.597Z,101235.16
2022-09-06T15:43:13.453Z,101238.16
2022-09-06T15:46:10.636Z,101234.47
2022-09-06T15:49:09.339Z,101229.38
2022-09-06T15:52:07.980Z,101233.81
2022-09-06T15:55:24.374Z,101239.31
2022-09-06T15:58:20.920Z,101225.50
2022-09-06T16:01:20.133Z,101220.63
2022-09-06T16:04:17.643Z,101209.75
2022-09-06T16:07:15.331Z,101209.56
2022-09-06T16:10:12.962Z,101211.63
2022-09-06T16:13:10.048Z,101202.44
2022-09-06T16:16:08.995Z,101207.66
2022-09-06T16:19:06.687Z,101192.47
2022-09-06T16:22:05.085Z,101194.44
2022-09-06T16:25:02.540Z,101191.66
2022-09-06T16:28:00.591Z,101186.22
2022-09-06T16:31:05.572Z,101186.75
2022-09-06T16:34:03.398Z,101192.75
2022-09-06T16:37:00.717Z,101179.31
2022-09-06T16:39:58.520Z,101197.31
2022-09-06T16:42:55.870Z,101196.28
2022-09-06T16:45:59.527Z,101204.50
2022-09-06T16:48:59.535Z,101204.38
2022-09-06T16:51:56.995Z,101195.31
2022-09-06T16:54:54.684Z,101203.81
2022-09-06T16:57:52.574Z,101204.94
2022-09-06T17:00:49.659Z,101209.50
2022-09-06T17:03:47.591Z,101207.53
2022-09-06T17:06:45.218Z,101203.66
2022-09-06T17:09:42.644Z,101211.13
2022-09-06T17:12:39.750Z,101205.28
2022-09-06T17:15:55.800Z,101216.03
2022-09-06T17:18:53.791Z,101198.50
2022-09-06T17:21:51.149Z,101208.47
2022-09-06T17:24:48.470Z,101214.56
2022-09-06T17:27:45.384Z,101225.63
2022-09-06T17:30:42.516Z,101220.72
2022-09-06T17:33:39.715Z,101223.72
2022-09-06T17:36:37.723Z,101213.34
2022-09-06T17:39:35.775Z,101213.91
2022-09-06T17:42:33.785Z,101212.50
2022-09-06T17:45:42.668Z,101225.97
2022-09-06T17:48:40.272Z,101223.53
2022-09-06T17:51:38.107Z,101229.56
2022-09-06T17:54:35.241Z,101245.34
2022-09-06T17:57:32.421Z,101242.81
2022-09-06T18:00:29.932Z,101245.34
2022-09-06T18:03:27.591Z,101240.09
2022-09-06T18:06:25.406Z,101250.38
2022-09-06T18:09:22.464Z,101252.22
2022-09-06T18:12:20.283Z,101251.94
2022-09-06T18:15:17.474Z,101257.75
2022-09-06T18:18:14.321Z,101264.09
2022-09-06T18:21:11.536Z,101266.06
2022-09-06T18:24:09.402Z,101264.09
2022-09-06T18:27:06.741Z,101255.94
2022-09-06T18:30:04.810Z,101262.81
2022-09-06T18:33:02.506Z,101264.63
2022-09-06T18:35:59.615Z,101261.16
2022-09-06T18:38:56.567Z,101258.34
2022-09-06T18:42:07.149Z,101273.84
2022-09-06T18:45:04.726Z,101263.34
2022-09-06T18:48:01.506Z,101269.66
2022-09-06T18:51:05.176Z,101262.25
2022-09-06T18:54:02.696Z,101278.78
2022-09-06T18:56:59.945Z,101271.81
2022-09-06T18:59:57.293Z,101271.44
2022-09-06T19:02:54.437Z,101260.91
2022-09-06T19:05:51.556Z,101278.38
2022-09-06T19:08:48.590Z,101256.00
2022-09-06T19:11:49.238Z,101264.91
2022-09-06T19:14:46.465Z,101261.78
2022-09-06T19:17:43.579Z,101264.81
2022-09-06T19:20:40.633Z,101252.91
2022-09-06T19:23:39.692Z,101252.44
2022-09-06T19:26:37.964Z,101259.44
2022-09-06T19:29:35.946Z,101250.25
2022-09-06T19:32:33.898Z,101263.97
2022-09-06T19:35:31.554Z,101265.09
2022-09-06T19:38:37.390Z,101265.38
2022-09-06T19:41:46.630Z,101261.66
2022-09-06T19:44:44.101Z,101253.50
2022-09-06T19:47:41.626Z,101265.16
2022-09-06T19:50:39.081Z,101253.03
2022-09-06T19:53:37.689Z,101240.56
2022-09-06T19:56:35.196Z,101248.66
2022-09-06T19:59:36.110Z,101238.13
2022-09-06T20:02:33.522Z,101231.38
2022-09-06T20:05:30.781Z,101229.22
2022-09-06T20:08:28.038Z,101228.88
2022-09-06T20:11:27.740Z,101221.38
2022-09-06T20:14:26.174Z,101230.28
2022-09-06T20:17:33.728Z,101226.00
2022-09-06T20:20:32.920Z,101220.09
2022-09-06T20:23:30.923Z,101210.91
2022-09-06T20:26:29.184Z,101197.75
2022-09-06T20:29:26.511Z,101203.56
2022-09-06T20:32:23.566Z,101198.31
2022-09-06T20:35:20.353Z,101206.47
2022-09-06T20:38:17.713Z,101184.31
2022-09-06T20:41:19.381Z,101179.38
2022-09-06T20:44:16.496Z,101169.34
2022-09-06T20:47:14.358Z,101168.69
2022-09-06T20:50:11.823Z,101168.25
2022-09-06T20:53:10.050Z,101157.34
2022-09-06T20:56:10.844Z,101172.88
2022-09-06T20:59:09.493Z,101157.88
2022-09-06T21:02:06.959Z,101154.69
2022-09-06T21:05:05.641Z,101143.97
2022-09-06T21:08:02.863Z,101150.88
2022-09-06T21:11:01.341Z,101150.13
2022-09-06T21:13:58.683Z,101148.44
2022-09-06T21:16:56.136Z,101142.13
2022-09-06T21:19:53.666Z,101147.28
2022-09-06T21:22:50.921Z,101158.03
2022-09-06T21:25:59.103Z,101162.28
2022-09-06T21:28:56.832Z,101166.03
2022-09-06T21:31:53.740Z,101160.75
2022-09-06T21:34:50.945Z,101150.00
2022-09-06T21:37:48.546Z,101144.91
2022-09-06T21:40:45.527Z,101143.19
2022-09-06T21:43:43.161Z,101127.09
2022-09-06T21:46:40.816Z,101124.25
2022-09-06T21:49:38.643Z,101133.06
2022-09-06T21:52:35.467Z,101140.94
2022-09-06T21:55:32.981Z,101147.91
2022-09-06T21:58:31.082Z,101140.28
2022-09-06T22:01:31.839Z,101150.28
2022-09-06T22:04:29.417Z,101148.72
2022-09-06T22:07:26.793Z,101157.31
2022-09-06T22:10:24.180Z,101152.03
2022-09-06T22:13:21.972Z,101148.75
2022-09-06T22:16:21.918Z,101154.06
2022-09-06T22:19:20.225Z,101149.53
2022-09-06T22:22:17.954Z,101158.06
2022-09-06T22:25:15.945Z,101146.22
2022-09-06T22:28:12.402Z,101139.78
2022-09-06T22:31:10.347Z,101139.78
2022-09-06T22:34:07.703Z,101133.44
2022-09-06T22:37:04.739Z,101130.50
2022-09-06T22:40:02.227Z,101122.03
2022-09-06T22:42:59.926Z,101115.56
2022-09-06T22:46:08.858Z,101119.66
2022-09-06T22:49:06.805Z,101116.66
2022-09-06T22:52:03.914Z,101118.72
2022-09-06T22:55:00.840Z,101111.78
2022-09-06T22:57:58.127Z,101111.78
2022-09-06T23:00:56.179Z,101108.75
2022-09-06T23:03:53.885Z,101103.38
2022-09-06T23:06:51.650Z,101092.03
2022-09-06T23:09:48.722Z,101084.75
2022-09-06T23:12:45.682Z,101077.06
2022-09-06T23:15:46.168Z,101068.50
2022-09-06T23:18:44.216Z,101075.56
2022-09-06T23:21:41.860Z,101063.66
2022-09-06T23:24:39.601Z,101064.84
2022-09-06T23:27:36.912Z,101057.06
2022-09-06T23:30:36.731Z,101055.81
2022-09-06T23:33:35.909Z,101051.19
2022-09-06T23:36:32.740Z,101047.13
2022-09-06T23:39:29.761Z,101052.47
2022-09-06T23:42:26.846Z,101043.75
2022-09-06T23:45:23.892Z,101043.63
2022-09-06T23:48:20.770Z,101042.88
2022-09-06T23:51:17.912Z,101041.84
2022-09-06T23:54:14.951Z,101034.88
2022-09-06T23:57:11.710Z,101035.75
